sensor_id;sensor_type;location;lat;lon;timestamp;pressure;altitude;pressure_sealevel;temperature
24201;BMP280;2801;50.972;7.856;2022-12-05T00:01:38;97363.41;;;3.48
24201;BMP280;2801;50.972;7.856;2022-12-05T00:04:10;97369.47;;;3.54
24201;BMP280;2801;50.972;7.856;2022-12-05T00:06:40;97367.88;;;3.53
24201;BMP280;2801;50.972;7.856;2022-12-05T00:09:11;97365.50;;;3.51
24201;BMP280;2801;50.972;7.856;2022-12-05T00:11:42;97370.53;;;3.53
24201;BMP280;2801;50.972;7.856;2022-12-05T00:14:11;97376.38;;;3.50
24201;BMP280;2801;50.972;7.856;2022-12-05T00:16:40;97366.88;;;3.49
24201;BMP280;2801;50.972;7.856;2022-12-05T00:19:13;97371.09;;;3.50
24201;BMP280;2801;50.972;7.856;2022-12-05T00:21:41;97362.63;;;3.48
24201;BMP280;2801;50.972;7.856;2022-12-05T00:24:12;97360.75;;;3.48
24201;BMP280;2801;50.972;7.856;2022-12-05T00:26:41;97361.84;;;3.47
24201;BMP280;2801;50.972;7.856;2022-12-05T00:29:10;97347.59;;;3.38
24201;BMP280;2801;50.972;7.856;2022-12-05T00:31:37;97360.25;;;3.46
24201;BMP280;2801;50.972;7.856;2022-12-05T00:34:04;97373.22;;;3.48
24201;BMP280;2801;50.972;7.856;2022-12-05T00:36:33;97367.91;;;3.48
24201;BMP280;2801;50.972;7.856;2022-12-05T00:39:08;97367.41;;;3.46
24201;BMP280;2801;50.972;7.856;2022-12-05T00:41:36;97372.44;;;3.47
24201;BMP280;2801;50.972;7.856;2022-12-05T00:44:03;97373.50;;;3.46
24201;BMP280;2801;50.972;7.856;2022-12-05T00:46:32;97376.38;;;3.50
24201;BMP280;2801;50.972;7.856;2022-12-05T00:49:02;97372.44;;;3.47
24201;BMP280;2801;50.972;7.856;2022-12-05T00:51:37;97371.09;;;3.50
24201;BMP280;2801;50.972;7.856;2022-12-05T00:54:10;97376.13;;;3.51
24201;BMP280;2801;50.972;7.856;2022-12-05T00:56:38;97358.91;;;3.49
24201;BMP280;2801;50.972;7.856;2022-12-05T00:59:06;97361.31;;;3.45
24201;BMP280;2801;50.972;7.856;2022-12-05T01:01:38;97374.50;;;3.50
24201;BMP280;2801;50.972;7.856;2022-12-05T01:04:13;97374.81;;;3.49
24201;BMP280;2801;50.972;7.856;2022-12-05T01:06:41;97377.47;;;3.49
24201;BMP280;2801;50.972;7.856;2022-12-05T01:09:11;97381.69;;;3.50
24201;BMP280;2801;50.972;7.856;2022-12-05T01:11:39;97382.47;;;3.50
24201;BMP280;2801;50.972;7.856;2022-12-05T01:14:12;97384.34;;;3.50
24201;BMP280;2801;50.972;7.856;2022-12-05T01:16:43;97379.59;;;3.47
24201;BMP280;2801;50.972;7.856;2022-12-05T01:19:18;97387.75;;;3.50
24201;BMP280;2801;50.972;7.856;2022-12-05T01:21:45;97380.41;;;3.47
24201;BMP280;2801;50.972;7.856;2022-12-05T01:24:14;97383.81;;;3.48
24201;BMP280;2801;50.972;7.856;2022-12-05T01:26:42;97381.75;;;3.45
24201;BMP280;2801;50.972;7.856;2022-12-05T01:29:12;97376.47;;;3.40
24201;BMP280;2801;50.972;7.856;2022-12-05T01:31:40;97376.25;;;3.36
24201;BMP280;2801;50.972;7.856;2022-12-05T01:34:12;97384.19;;;3.36
24201;BMP280;2801;50.972;7.856;2022-12-05T01:36:41;97386.59;;;3.33
24201;BMP280;2801;50.972;7.856;2022-12-05T01:39:10;97366.34;;;3.18
24201;BMP280;2801;50.972;7.856;2022-12-05T01:41:43;97386.44;;;3.24
24201;BMP280;2801;50.972;7.856;2022-12-05T01:46:46;97396.28;;;3.14
24201;BMP280;2801;50.972;7.856;2022-12-05T01:49:16;97396.63;;;3.07
24201;BMP280;2801;50.972;7.856;2022-12-05T01:51:52;97394.50;;;3.04
24201;BMP280;2801;50.972;7.856;2022-12-05T01:54:21;97385.81;;;2.99
24201;BMP280;2801;50.972;7.856;2022-12-05T01:57:01;97390.88;;;2.95
24201;BMP280;2801;50.972;7.856;2022-12-05T01:59:33;97392.72;;;2.95
24201;BMP280;2801;50.972;7.856;2022-12-05T02:02:02;97399.91;;;2.94
24201;BMP280;2801;50.972;7.856;2022-12-05T02:04:30;97401.22;;;2.92
24201;BMP280;2801;50.972;7.856;2022-12-05T02:06:57;97400.19;;;2.88
24201;BMP280;2801;50.972;7.856;2022-12-05T02:09:24;97403.38;;;2.90
24201;BMP280;2801;50.972;7.856;2022-12-05T02:11:56;97394.66;;;2.84
24201;BMP280;2801;50.972;7.856;2022-12-05T02:14:57;97401.25;;;2.87
24201;BMP280;2801;50.972;7.856;2022-12-05T02:20:21;97409.75;;;2.89
24201;BMP280;2801;50.972;7.856;2022-12-05T02:28:38;97413.16;;;2.89
24201;BMP280;2801;50.972;7.856;2022-12-05T02:31:26;97415.03;;;2.89
24201;BMP280;2801;50.972;7.856;2022-12-05T02:34:03;97420.81;;;2.91
24201;BMP280;2801;50.972;7.856;2022-12-05T02:36:45;97416.06;;;2.88
24201;BMP280;2801;50.972;7.856;2022-12-05T02:39:23;97414.50;;;2.87
24201;BMP280;2801;50.972;7.856;2022-12-05T02:42:01;97418.72;;;2.88
24201;BMP280;2801;50.972;7.856;2022-12-05T02:44:46;97411.09;;;2.81
24201;BMP280;2801;50.972;7.856;2022-12-05T02:47:22;97416.34;;;2.86
24201;BMP280;2801;50.972;7.856;2022-12-05T02:49:51;97411.34;;;2.85
24201;BMP280;2801;50.972;7.856;2022-12-05T02:52:21;97409.53;;;2.80
24201;BMP280;2801;50.972;7.856;2022-12-05T02:54:52;97416.38;;;2.81
24201;BMP280;2801;50.972;7.856;2022-12-05T02:57:21;97413.75;;;2.81
24201;BMP280;2801;50.972;7.856;2022-12-05T02:59:50;97411.13;;;2.76
24201;BMP280;2801;50.972;7.856;2022-12-05T03:02:32;97402.94;;;2.73
24201;BMP280;2801;50.972;7.856;2022-12-05T03:05:23;97408.00;;;2.69
24201;BMP280;2801;50.972;7.856;2022-12-05T03:07:56;97414.31;;;2.73
24201;BMP280;2801;50.972;7.856;2022-12-05T03:10:27;97413.78;;;2.71
24201;BMP280;2801;50.972;7.856;2022-12-05T03:13:01;97422.25;;;2.73
24201;BMP280;2801;50.972;7.856;2022-12-05T03:15:48;97419.88;;;2.72
24201;BMP280;2801;50.972;7.856;2022-12-05T03:18:46;97423.88;;;2.69
24201;BMP280;2801;50.972;7.856;2022-12-05T03:24:03;97431.53;;;2.71
24201;BMP280;2801;50.972;7.856;2022-12-05T03:27:26;97427.81;;;2.72
24201;BMP280;2801;50.972;7.856;2022-12-05T03:30:01;97430.47;;;2.72
24201;BMP280;2801;50.972;7.856;2022-12-05T03:32:41;97431.28;;;2.72
24201;BMP280;2801;50.972;7.856;2022-12-05T03:35:18;97433.94;;;2.72
24201;BMP280;2801;50.972;7.856;2022-12-05T03:37:56;97430.25;;;2.68
24201;BMP280;2801;50.972;7.856;2022-12-05T03:40:48;97432.31;;;2.71
24201;BMP280;2801;50.972;7.856;2022-12-05T03:48:38;97438.19;;;2.68
24201;BMP280;2801;50.972;7.856;2022-12-05T03:51:13;97437.09;;;2.69
24201;BMP280;2801;50.972;7.856;2022-12-05T03:53:53;97437.09;;;2.69
24201;BMP280;2801;50.972;7.856;2022-12-05T03:56:34;97440.03;;;2.68
24201;BMP280;2801;50.972;7.856;2022-12-05T03:59:19;97442.41;;;2.69
24201;BMP280;2801;50.972;7.856;2022-12-05T04:01:49;97441.59;;;2.69
24201;BMP280;2801;50.972;7.856;2022-12-05T04:04:28;97434.78;;;2.63
24201;BMP280;2801;50.972;7.856;2022-12-05T04:07:00;97443.75;;;2.67
24201;BMP280;2801;50.972;7.856;2022-12-05T04:09:46;97446.94;;;2.64
24201;BMP280;2801;50.972;7.856;2022-12-05T04:12:26;97446.94;;;2.64
24201;BMP280;2801;50.972;7.856;2022-12-05T04:15:01;97438.22;;;2.58
24201;BMP280;2801;50.972;7.856;2022-12-05T04:17:57;97439.56;;;2.56
24201;BMP280;2801;50.972;7.856;2022-12-05T04:20:39;97444.59;;;2.57
24201;BMP280;2801;50.972;7.856;2022-12-05T04:23:27;97445.34;;;2.58
24201;BMP280;2801;50.972;7.856;2022-12-05T04:26:21;97434.00;;;2.52
24201;BMP280;2801;50.972;7.856;2022-12-05T04:29:06;97450.94;;;2.56
24201;BMP280;2801;50.972;7.856;2022-12-05T04:31:42;97454.09;;;2.58
24201;BMP280;2801;50.972;7.856;2022-12-05T04:34:13;97453.03;;;2.59
24201;BMP280;2801;50.972;7.856;2022-12-05T04:39:27;97460.44;;;2.62
24201;BMP280;2801;50.972;7.856;2022-12-05T04:42:20;97459.13;;;2.60
24201;BMP280;2801;50.972;7.856;2022-12-05T04:45:02;97464.16;;;2.61
24201;BMP280;2801;50.972;7.856;2022-12-05T04:47:38;97463.88;;;2.63
24201;BMP280;2801;50.972;7.856;2022-12-05T04:50:10;97464.13;;;2.66
24201;BMP280;2801;50.972;7.856;2022-12-05T04:52:40;97447.72;;;2.64
24201;BMP280;2801;50.972;7.856;2022-12-05T04:59:15;97453.78;;;2.65
24201;BMP280;2801;50.972;7.856;2022-12-05T05:01:53;97453.53;;;2.66
24201;BMP280;2801;50.972;7.856;2022-12-05T05:04:35;97462.00;;;2.68
24201;BMP280;2801;50.972;7.856;2022-12-05T05:07:09;97460.41;;;2.67
24201;BMP280;2801;50.972;7.856;2022-12-05T05:09:38;97464.09;;;2.71
24201;BMP280;2801;50.972;7.856;2022-12-05T05:12:06;97460.38;;;2.72
24201;BMP280;2801;50.972;7.856;2022-12-05T05:14:33;97466.19;;;2.74
24201;BMP280;2801;50.972;7.856;2022-12-05T05:17:00;97467.00;;;2.75
24201;BMP280;2801;50.972;7.856;2022-12-05T05:19:27;97466.72;;;2.76
24201;BMP280;2801;50.972;7.856;2022-12-05T05:21:55;97469.63;;;2.75
24201;BMP280;2801;50.972;7.856;2022-12-05T05:24:22;97471.75;;;2.73
24201;BMP280;2801;50.972;7.856;2022-12-05T05:26:49;97477.63;;;2.70
24201;BMP280;2801;50.972;7.856;2022-12-05T05:29:23;97477.09;;;2.68
24201;BMP280;2801;50.972;7.856;2022-12-05T05:31:49;97480.25;;;2.70
24201;BMP280;2801;50.972;7.856;2022-12-05T05:34:16;97469.41;;;2.66
24201;BMP280;2801;50.972;7.856;2022-12-05T05:36:43;97464.91;;;2.67
24201;BMP280;2801;50.972;7.856;2022-12-05T05:39:13;97474.16;;;2.69
24201;BMP280;2801;50.972;7.856;2022-12-05T05:41:41;97471.56;;;2.64
24201;BMP280;2801;50.972;7.856;2022-12-05T05:44:09;97454.13;;;2.53
24201;BMP280;2801;50.972;7.856;2022-12-05T05:46:36;97472.31;;;2.65
24201;BMP280;2801;50.972;7.856;2022-12-05T05:49:04;97474.44;;;2.68
24201;BMP280;2801;50.972;7.856;2022-12-05T05:51:31;97476.00;;;2.69
24201;BMP280;2801;50.972;7.856;2022-12-05T05:53:59;97476.53;;;2.71
24201;BMP280;2801;50.972;7.856;2022-12-05T05:56:26;97468.91;;;2.64
24201;BMP280;2801;50.972;7.856;2022-12-05T05:58:59;97481.56;;;2.72
24201;BMP280;2801;50.972;7.856;2022-12-05T06:01:28;97485.56;;;2.70
24201;BMP280;2801;50.972;7.856;2022-12-05T06:03:56;97489.50;;;2.72
24201;BMP280;2801;50.972;7.856;2022-12-05T06:06:23;97485.56;;;2.65
24201;BMP280;2801;50.972;7.856;2022-12-05T06:08:50;97494.56;;;2.64
24201;BMP280;2801;50.972;7.856;2022-12-05T06:11:23;97488.25;;;2.60
24201;BMP280;2801;50.972;7.856;2022-12-05T06:13:58;97493.78;;;2.58
24201;BMP280;2801;50.972;7.856;2022-12-05T06:16:30;97499.34;;;2.57
24201;BMP280;2801;50.972;7.856;2022-12-05T06:18:58;97498.06;;;2.54
24201;BMP280;2801;50.972;7.856;2022-12-05T06:21:25;97491.44;;;2.52
24201;BMP280;2801;50.972;7.856;2022-12-05T06:23:53;97492.75;;;2.54
24201;BMP280;2801;50.972;7.856;2022-12-05T06:26:21;97489.03;;;2.55
24201;BMP280;2801;50.972;7.856;2022-12-05T06:28:48;97496.72;;;2.57
24201;BMP280;2801;50.972;7.856;2022-12-05T06:31:19;97500.13;;;2.62
24201;BMP280;2801;50.972;7.856;2022-12-05T06:33:47;97485.63;;;2.50
24201;BMP280;2801;50.972;7.856;2022-12-05T06:36:20;97500.94;;;2.58
24201;BMP280;2801;50.972;7.856;2022-12-05T06:38:47;97507.28;;;2.57
24201;BMP280;2801;50.972;7.856;2022-12-05T06:41:17;97502.28;;;2.55
24201;BMP280;2801;50.972;7.856;2022-12-05T06:43:44;97504.91;;;2.55
24201;BMP280;2801;50.972;7.856;2022-12-05T06:46:13;97508.88;;;2.58
24201;BMP280;2801;50.972;7.856;2022-12-05T06:48:40;97494.34;;;2.50
24201;BMP280;2801;50.972;7.856;2022-12-05T06:51:14;97505.97;;;2.64
24201;BMP280;2801;50.972;7.856;2022-12-05T06:53:42;97508.34;;;2.66
24201;BMP280;2801;50.972;7.856;2022-12-05T06:56:15;97515.72;;;2.69
24201;BMP280;2801;50.972;7.856;2022-12-05T06:58:48;97513.59;;;2.71
24201;BMP280;2801;50.972;7.856;2022-12-05T07:01:18;97521.28;;;2.72
24201;BMP280;2801;50.972;7.856;2022-12-05T07:04:14;97522.63;;;2.70
24201;BMP280;2801;50.972;7.856;2022-12-05T07:06:43;97529.22;;;2.72
24201;BMP280;2801;50.972;7.856;2022-12-05T07:09:22;97520.22;;;2.68
24201;BMP280;2801;50.972;7.856;2022-12-05T07:12:09;97529.75;;;2.69
24201;BMP280;2801;50.972;7.856;2022-12-05T07:14:36;97535.84;;;2.70
24201;BMP280;2801;50.972;7.856;2022-12-05T07:17:20;97535.84;;;2.70
24201;BMP280;2801;50.972;7.856;2022-12-05T07:19:48;97540.31;;;2.74
24201;BMP280;2801;50.972;7.856;2022-12-05T07:22:17;97531.06;;;2.72
24201;BMP280;2801;50.972;7.856;2022-12-05T07:24:44;97533.69;;;2.77
24201;BMP280;2801;50.972;7.856;2022-12-05T07:27:13;97545.34;;;2.81
24201;BMP280;2801;50.972;7.856;2022-12-05T07:29:40;97544.78;;;2.84
24201;BMP280;2801;50.972;7.856;2022-12-05T07:32:08;97551.66;;;2.85
24201;BMP280;2801;50.972;7.856;2022-12-05T07:34:35;97547.41;;;2.84
24201;BMP280;2801;50.972;7.856;2022-12-05T07:37:02;97548.50;;;2.83
24201;BMP280;2801;50.972;7.856;2022-12-05T07:39:29;97551.13;;;2.83
24201;BMP280;2801;50.972;7.856;2022-12-05T07:41:56;97552.97;;;2.82
24201;BMP280;2801;50.972;7.856;2022-12-05T07:44:22;97560.13;;;2.87
24201;BMP280;2801;50.972;7.856;2022-12-05T07:46:49;97541.88;;;2.80
24201;BMP280;2801;50.972;7.856;2022-12-05T07:49:16;97553.19;;;2.96
24201;BMP280;2801;50.972;7.856;2022-12-05T07:51:43;97557.16;;;2.98
24201;BMP280;2801;50.972;7.856;2022-12-05T07:54:10;97557.41;;;3.02
24201;BMP280;2801;50.972;7.856;2022-12-05T07:56:36;97557.94;;;3.04
24201;BMP280;2801;50.972;7.856;2022-12-05T07:59:08;97562.41;;;3.08
24201;BMP280;2801;50.972;7.856;2022-12-05T08:01:35;97558.72;;;3.09
24201;BMP280;2801;50.972;7.856;2022-12-05T08:04:02;97568.72;;;3.17
24201;BMP280;2801;50.972;7.856;2022-12-05T08:06:30;97563.69;;;3.16
24201;BMP280;2801;50.972;7.856;2022-12-05T08:08:59;97573.50;;;3.15
24201;BMP280;2801;50.972;7.856;2022-12-05T08:11:30;97572.69;;;3.20
24201;BMP280;2801;50.972;7.856;2022-12-05T08:14:03;97568.97;;;3.21
24201;BMP280;2801;50.972;7.856;2022-12-05T08:16:31;97574.78;;;3.23
24201;BMP280;2801;50.972;7.856;2022-12-05T08:19:02;97582.47;;;3.24
24201;BMP280;2801;50.972;7.856;2022-12-05T08:21:30;97588.00;;;3.28
24201;BMP280;2801;50.972;7.856;2022-12-05T08:23:57;97586.94;;;3.29
24201;BMP280;2801;50.972;7.856;2022-12-05T08:26:30;97588.81;;;3.28
24201;BMP280;2801;50.972;7.856;2022-12-05T08:28:59;97588.00;;;3.28
24201;BMP280;2801;50.972;7.856;2022-12-05T08:31:29;97588.50;;;3.35
24201;BMP280;2801;50.972;7.856;2022-12-05T08:33:58;97598.56;;;3.38
24201;BMP280;2801;50.972;7.856;2022-12-05T08:36:28;97600.63;;;3.41
24201;BMP280;2801;50.972;7.856;2022-12-05T08:38:57;97599.88;;;3.40
24201;BMP280;2801;50.972;7.856;2022-12-05T08:41:25;97598.28;;;3.39
24201;BMP280;2801;50.972;7.856;2022-12-05T08:44:05;97607.28;;;3.43
24201;BMP280;2801;50.972;7.856;2022-12-05T08:46:36;97607.50;;;3.47
24201;BMP280;2801;50.972;7.856;2022-12-05T08:49:05;97612.78;;;3.52
24201;BMP280;2801;50.972;7.856;2022-12-05T08:51:32;97603.50;;;3.54
24201;BMP280;2801;50.972;7.856;2022-12-05T08:54:04;97604.28;;;3.55
24201;BMP280;2801;50.972;7.856;2022-12-05T08:56:31;97611.16;;;3.61
24201;BMP280;2801;50.972;7.856;2022-12-05T08:59:01;97601.31;;;3.61
24201;BMP280;2801;50.972;7.856;2022-12-05T09:01:33;97606.88;;;3.65
24201;BMP280;2801;50.972;7.856;2022-12-05T09:04:03;97614.81;;;3.65
24201;BMP280;2801;50.972;7.856;2022-12-05T09:06:32;97620.13;;;3.65
24201;BMP280;2801;50.972;7.856;2022-12-05T09:09:06;97611.66;;;3.63
24201;BMP280;2801;50.972;7.856;2022-12-05T09:11:37;97617.50;;;3.60
24201;BMP280;2801;50.972;7.856;2022-12-05T09:14:06;97612.75;;;3.57
24201;BMP280;2801;50.972;7.856;2022-12-05T09:16:35;97622.34;;;3.48
24201;BMP280;2801;50.972;7.856;2022-12-05T09:19:15;97612.81;;;3.47
24201;BMP280;2801;50.972;7.856;2022-12-05T09:21:43;97620.72;;;3.52
24201;BMP280;2801;50.972;7.856;2022-12-05T09:24:12;97609.63;;;3.50
24201;BMP280;2801;50.972;7.856;2022-12-05T09:26:40;97625.44;;;3.60
24201;BMP280;2801;50.972;7.856;2022-12-05T09:29:07;97629.16;;;3.64
24201;BMP280;2801;50.972;7.856;2022-12-05T09:31:44;97631.50;;;3.65
24201;BMP280;2801;50.972;7.856;2022-12-05T09:34:11;97629.66;;;3.66
24201;BMP280;2801;50.972;7.856;2022-12-05T09:36:41;97636.53;;;3.72
24201;BMP280;2801;50.972;7.856;2022-12-05T09:39:09;97640.81;;;3.68
24201;BMP280;2801;50.972;7.856;2022-12-05T09:47:38;97634.63;;;3.77
24201;BMP280;2801;50.972;7.856;2022-12-05T09:56:04;97628.38;;;4.02
24201;BMP280;2801;50.972;7.856;2022-12-05T09:58:48;97629.06;;;4.13
24201;BMP280;2801;50.972;7.856;2022-12-05T10:01:46;97627.66;;;4.20
24201;BMP280;2801;50.972;7.856;2022-12-05T10:07:16;97630.06;;;4.22
24201;BMP280;2801;50.972;7.856;2022-12-05T10:10:27;97622.84;;;4.27
24201;BMP280;2801;50.972;7.856;2022-12-05T10:16:22;97620.16;;;4.32
24201;BMP280;2801;50.972;7.856;2022-12-05T10:19:03;97626.03;;;4.29
24201;BMP280;2801;50.972;7.856;2022-12-05T10:21:43;97631.34;;;4.24
24201;BMP280;2801;50.972;7.856;2022-12-05T10:24:17;97624.75;;;4.22
24201;BMP280;2801;50.972;7.856;2022-12-05T10:26:59;97632.22;;;4.20
24201;BMP280;2801;50.972;7.856;2022-12-05T10:29:44;97632.22;;;4.20
24201;BMP280;2801;50.972;7.856;2022-12-05T10:32:23;97628.81;;;4.14
24201;BMP280;2801;50.972;7.856;2022-12-05T10:35:00;97635.34;;;4.22
24201;BMP280;2801;50.972;7.856;2022-12-05T10:37:32;97627.94;;;4.24
24201;BMP280;2801;50.972;7.856;2022-12-05T10:39:59;97635.63;;;4.25
24201;BMP280;2801;50.972;7.856;2022-12-05T10:42:31;97625.81;;;4.21
24201;BMP280;2801;50.972;7.856;2022-12-05T10:45:05;97629.28;;;4.16
24201;BMP280;2801;50.972;7.856;2022-12-05T10:47:34;97622.47;;;4.10
24201;BMP280;2801;50.972;7.856;2022-12-05T10:50:19;97624.59;;;4.08
24201;BMP280;2801;50.972;7.856;2022-12-05T10:52:47;97625.72;;;3.97
24201;BMP280;2801;50.972;7.856;2022-12-05T10:55:17;97617.59;;;3.88
24201;BMP280;2801;50.972;7.856;2022-12-05T10:58:01;97620.75;;;3.90
24201;BMP280;2801;50.972;7.856;2022-12-05T11:00:44;97603.31;;;3.79
24201;BMP280;2801;50.972;7.856;2022-12-05T11:03:29;97615.22;;;3.82
24201;BMP280;2801;50.972;7.856;2022-12-05T11:06:01;97626.59;;;3.87
24201;BMP280;2801;50.972;7.856;2022-12-05T11:08:31;97620.00;;;3.85
24201;BMP280;2801;50.972;7.856;2022-12-05T11:11:24;97616.56;;;3.84
24201;BMP280;2801;50.972;7.856;2022-12-05T11:14:06;97608.34;;;3.81
24201;BMP280;2801;50.972;7.856;2022-12-05T11:16:56;97613.16;;;3.74
24201;BMP280;2801;50.972;7.856;2022-12-05T11:19:33;97609.22;;;3.71
24201;BMP280;2801;50.972;7.856;2022-12-05T11:22:01;97610.19;;;3.80
24201;BMP280;2801;50.972;7.856;2022-12-05T11:24:35;97609.09;;;3.86
24201;BMP280;2801;50.972;7.856;2022-12-05T11:30:00;97609.63;;;3.88
24201;BMP280;2801;50.972;7.856;2022-12-05T11:32:32;97614.41;;;3.86
24201;BMP280;2801;50.972;7.856;2022-12-05T11:38:11;97628.81;;;3.75
24201;BMP280;2801;50.972;7.856;2022-12-05T11:41:10;97622.69;;;3.75
24201;BMP280;2801;50.972;7.856;2022-12-05T11:44:04;97622.19;;;3.73
24201;BMP280;2801;50.972;7.856;2022-12-05T11:47:17;97617.47;;;3.65
24201;BMP280;2801;50.972;7.856;2022-12-05T11:56:21;97621.16;;;3.69
24201;BMP280;2801;50.972;7.856;2022-12-05T11:59:30;97615.03;;;3.73
24201;BMP280;2801;50.972;7.856;2022-12-05T12:05:21;97609.75;;;3.73
24201;BMP280;2801;50.972;7.856;2022-12-05T12:08:25;97596.00;;;3.66
24201;BMP280;2801;50.972;7.856;2022-12-05T12:14:18;97618.69;;;3.82
24201;BMP280;2801;50.972;7.856;2022-12-05T12:17:00;97605.75;;;3.71
24201;BMP280;2801;50.972;7.856;2022-12-05T12:32:14;97621.88;;;3.84
24201;BMP280;2801;50.972;7.856;2022-12-05T12:40:29;97630.66;;;3.75
24201;BMP280;2801;50.972;7.856;2022-12-05T12:49:10;97620.09;;;3.70
24201;BMP280;2801;50.972;7.856;2022-12-05T12:51:51;97613.53;;;3.62
24201;BMP280;2801;50.972;7.856;2022-12-05T12:54:32;97621.72;;;3.66
24201;BMP280;2801;50.972;7.856;2022-12-05T13:01:01;97616.19;;;3.57
24201;BMP280;2801;50.972;7.856;2022-12-05T13:03:41;97621.22;;;3.59
24201;BMP280;2801;50.972;7.856;2022-12-05T13:06:30;97623.59;;;3.60
24201;BMP280;2801;50.972;7.856;2022-12-05T13:09:08;97618.81;;;3.62
24201;BMP280;2801;50.972;7.856;2022-12-05T13:11:41;97602.94;;;3.57
24201;BMP280;2801;50.972;7.856;2022-12-05T13:14:16;97615.84;;;3.69
24201;BMP280;2801;50.972;7.856;2022-12-05T13:16:48;97623.47;;;3.80
24201;BMP280;2801;50.972;7.856;2022-12-05T13:21:57;97619.75;;;3.81
24201;BMP280;2801;50.972;7.856;2022-12-05T13:24:27;97607.03;;;3.78
24201;BMP280;2801;50.972;7.856;2022-12-05T13:26:59;97607.84;;;3.79
24201;BMP280;2801;50.972;7.856;2022-12-05T13:29:35;97625.28;;;3.85
24201;BMP280;2801;50.972;7.856;2022-12-05T13:32:05;97623.47;;;3.80
24201;BMP280;2801;50.972;7.856;2022-12-05T13:34:47;97620.31;;;3.78
24201;BMP280;2801;50.972;7.856;2022-12-05T13:37:27;97627.22;;;3.74
24201;BMP280;2801;50.972;7.856;2022-12-05T13:40:33;97622.19;;;3.73
24201;BMP280;2801;50.972;7.856;2022-12-05T13:43:28;97610.88;;;3.57
24201;BMP280;2801;50.972;7.856;2022-12-05T13:46:23;97626.75;;;3.67
24201;BMP280;2801;50.972;7.856;2022-12-05T13:49:03;97629.13;;;3.69
24201;BMP280;2801;50.972;7.856;2022-12-05T13:51:37;97631.50;;;3.70
24201;BMP280;2801;50.972;7.856;2022-12-05T13:54:18;97627.81;;;3.66
24201;BMP280;2801;50.972;7.856;2022-12-05T13:59:59;97627.56;;;3.63
24201;BMP280;2801;50.972;7.856;2022-12-05T14:02:47;97628.63;;;3.62
24201;BMP280;2801;50.972;7.856;2022-12-05T14:07:53;97637.38;;;3.62
24201;BMP280;2801;50.972;7.856;2022-12-05T14:15:48;97630.03;;;3.49
24201;BMP280;2801;50.972;7.856;2022-12-05T14:18:27;97627.09;;;3.51
24201;BMP280;2801;50.972;7.856;2022-12-05T14:21:16;97631.31;;;3.52
24201;BMP280;2801;50.972;7.856;2022-12-05T14:30:08;97636.44;;;3.38
24201;BMP280;2801;50.972;7.856;2022-12-05T14:32:40;97630.63;;;3.36
24201;BMP280;2801;50.972;7.856;2022-12-05T14:35:18;97635.94;;;3.36
24201;BMP280;2801;50.972;7.856;2022-12-05T14:37:58;97639.91;;;3.34
24201;BMP280;2801;50.972;7.856;2022-12-05T14:40:41;97637.00;;;3.30
24201;BMP280;2801;50.972;7.856;2022-12-05T14:43:30;97634.13;;;3.27
24201;BMP280;2801;50.972;7.856;2022-12-05T14:46:00;97634.91;;;3.27
24201;BMP280;2801;50.972;7.856;2022-12-05T14:48:38;97627.25;;;3.21
24201;BMP280;2801;50.972;7.856;2022-12-05T14:54:13;97643.16;;;3.16
24201;BMP280;2801;50.972;7.856;2022-12-05T14:57:10;97632.84;;;3.14
24201;BMP280;2801;50.972;7.856;2022-12-05T15:00:05;97642.91;;;3.12
24201;BMP280;2801;50.972;7.856;2022-12-05T15:02:39;97638.44;;;3.08
24201;BMP280;2801;50.972;7.856;2022-12-05T15:05:31;97646.88;;;3.10
24201;BMP280;2801;50.972;7.856;2022-12-05T15:08:01;97632.09;;;2.99
24201;BMP280;2801;50.972;7.856;2022-12-05T15:10:37;97649.81;;;3.08
24201;BMP280;2801;50.972;7.856;2022-12-05T15:13:13;97647.72;;;3.05
24201;BMP280;2801;50.972;7.856;2022-12-05T15:15:45;97650.06;;;3.07
24201;BMP280;2801;50.972;7.856;2022-12-05T15:18:50;97655.09;;;3.08
24201;BMP280;2801;50.972;7.856;2022-12-05T15:21:31;97657.22;;;3.11
24201;BMP280;2801;50.972;7.856;2022-12-05T15:24:05;97658.81;;;3.07
24201;BMP280;2801;50.972;7.856;2022-12-05T15:26:52;97654.59;;;3.06
24201;BMP280;2801;50.972;7.856;2022-12-05T15:35:01;97666.78;;;3.02
24201;BMP280;2801;50.972;7.856;2022-12-05T15:37:42;97666.78;;;3.02
24201;BMP280;2801;50.972;7.856;2022-12-05T15:40:16;97674.47;;;3.04
24201;BMP280;2801;50.972;7.856;2022-12-05T15:42:53;97677.38;;;3.02
24201;BMP280;2801;50.972;7.856;2022-12-05T15:45:29;97676.34;;;2.98
24201;BMP280;2801;50.972;7.856;2022-12-05T15:50:41;97689.56;;;2.98
24201;BMP280;2801;50.972;7.856;2022-12-05T15:56:25;97675.81;;;2.96
24201;BMP280;2801;50.972;7.856;2022-12-05T15:59:17;97668.66;;;2.92
24201;BMP280;2801;50.972;7.856;2022-12-05T16:01:54;97680.03;;;2.97
24201;BMP280;2801;50.972;7.856;2022-12-05T16:04:48;97686.41;;;2.96
24201;BMP280;2801;50.972;7.856;2022-12-05T16:07:15;97686.94;;;2.98
24201;BMP280;2801;50.972;7.856;2022-12-05T16:09:44;97684.78;;;3.00
24201;BMP280;2801;50.972;7.856;2022-12-05T16:12:19;97683.47;;;3.03
24201;BMP280;2801;50.972;7.856;2022-12-05T16:14:53;97680.28;;;3.06
24201;BMP280;2801;50.972;7.856;2022-12-05T16:17:36;97685.31;;;3.07
24201;BMP280;2801;50.972;7.856;2022-12-05T16:20:24;97687.44;;;3.05
24201;BMP280;2801;50.972;7.856;2022-12-05T16:22:57;97681.84;;;3.07
24201;BMP280;2801;50.972;7.856;2022-12-05T16:25:32;97680.28;;;3.06
24201;BMP280;2801;50.972;7.856;2022-12-05T16:28:15;97684.50;;;3.07
24201;BMP280;2801;50.972;7.856;2022-12-05T16:31:04;97679.50;;;3.05
24201;BMP280;2801;50.972;7.856;2022-12-05T16:33:31;97683.97;;;3.10
24201;BMP280;2801;50.972;7.856;2022-12-05T16:36:10;97686.34;;;3.11
24201;BMP280;2801;50.972;7.856;2022-12-05T16:38:38;97693.22;;;3.12
24201;BMP280;2801;50.972;7.856;2022-12-05T16:41:13;97692.44;;;3.12
24201;BMP280;2801;50.972;7.856;2022-12-05T16:43:44;97692.19;;;3.08
24201;BMP280;2801;50.972;7.856;2022-12-05T16:48:46;97696.44;;;3.09
24201;BMP280;2801;50.972;7.856;2022-12-05T16:51:42;97701.19;;;3.07
24201;BMP280;2801;50.972;7.856;2022-12-05T16:54:10;97696.97;;;3.06
24201;BMP280;2801;50.972;7.856;2022-12-05T16:56:37;97696.44;;;3.09
24201;BMP280;2801;50.972;7.856;2022-12-05T16:59:20;97699.63;;;3.06
24201;BMP280;2801;50.972;7.856;2022-12-05T17:01:48;97702.78;;;3.03
24201;BMP280;2801;50.972;7.856;2022-12-05T17:04:15;97690.63;;;2.97
24201;BMP280;2801;50.972;7.856;2022-12-05T17:06:42;97700.16;;;3.03
24201;BMP280;2801;50.972;7.856;2022-12-05T17:09:09;97690.63;;;2.97
24201;BMP280;2801;50.972;7.856;2022-12-05T17:11:40;97699.91;;;3.00
24201;BMP280;2801;50.972;7.856;2022-12-05T17:14:13;97689.84;;;2.97
24201;BMP280;2801;50.972;7.856;2022-12-05T17:16:42;97707.84;;;3.00
24201;BMP280;2801;50.972;7.856;2022-12-05T17:19:11;97706.25;;;2.99
24201;BMP280;2801;50.972;7.856;2022-12-05T17:21:40;97702.28;;;2.96
24201;BMP280;2801;50.972;7.856;2022-12-05T17:24:25;97707.84;;;3.00
24201;BMP280;2801;50.972;7.856;2022-12-05T17:26:54;97705.72;;;2.92